This is the latest recevied weather packets stored in our database for station/object K4YY. If no packets are shown the sender has not sent any weather packets the latest 10 day(s).
| Time | Temp. | Humidity | Pressure | Rain* | Wind** | Luminosity | Snow |
|---|---|---|---|---|---|---|---|
| 1777299038 | 20.56° C | 78% | 1018.2 hPa | 0 mm | - | 232 W/m² | - |
| 1777295418 | 20.56° C | 78% | 1017.3 hPa | 0 mm | - | 164 W/m² | - |
| 1777291818 | 20.56° C | 80% | 1016.8 hPa | 0 mm | - | 67 W/m² | - |
| 1777287019 | 20.56° C | 80% | 1015.6 hPa | 0 mm | - | 0 W/m² | - |
| 1777286418 | 20.56° C | 81% | 1015.5 hPa | 0 mm | - | 0 W/m² | - |
| 1777285258 | 21.11° C | 81% | 1015.1 hPa | 0 mm | - | 0 W/m² | - |
| 1777284659 | 21.11° C | 80% | 1015 hPa | 0 mm | - | 0 W/m² | - |
| 1777282859 | 21.11° C | 82% | 1014.5 hPa | 0 mm | - | 0 W/m² | - |
| 1777280459 | 21.11° C | 82% | 1014.1 hPa | 0 mm | - | 0 W/m² | - |
| 1777278619 | 21.67° C | 83% | 1013.7 hPa | 0 mm | - | 0 W/m² | - |
| 1777272618 | 21.67° C | 85% | 1013 hPa | 0 mm | - | 0 W/m² | - |
| 1777270838 | 22.22° C | 87% | 1013.1 hPa | 0 mm | - | 0 W/m² | - |
| 1777266019 | 22.22° C | 87% | 1013.1 hPa | 0 mm | - | 0 W/m² | - |
| 1777265419 | 22.22° C | 87% | 1013.1 hPa | 0 mm | - | 0 W/m² | - |
| 1777264219 | 22.22° C | 87% | 1013 hPa | 0 mm | - | 0 W/m² | - |
| 1777262419 | 22.22° C | 86% | 1012.8 hPa | 0 mm | - | 0 W/m² | - |
| 1777261218 | 22.22° C | 86% | 1012.7 hPa | 0 mm | - | 0 W/m² | - |
| 1777260618 | 22.78° C | 85% | 1012.6 hPa | 0 mm | - | 0 W/m² | - |
| 1777258818 | 22.78° C | 84% | 1012.3 hPa | 0 mm | - | 0 W/m² | - |
| 1777251918 | 23.89° C | 78% | 1011.4 hPa | 0 mm | - | 0 W/m² | - |
| 1777248938 | 24.44° C | 75% | 1009.8 hPa | 0 mm | - | 0 W/m² | - |
| 1777247118 | 25° C | 75% | 1009.6 hPa | 0 mm | - | 14 W/m² | - |
| 1777245919 | 25.56° C | 73% | 1009.5 hPa | 0 mm | - | 37 W/m² | - |
| 1777244138 | 25.56° C | 72% | 1009.3 hPa | 0 mm | - | 64 W/m² | - |
| 1777242319 | 26.11° C | 71% | 1009.1 hPa | 0 mm | - | 295 W/m² | - |
* Rain latest hour (hover to see other rain measurements)
** Current wind speed in m/s (hover to see current wind gust speed)